createdAt,value
2019-01-09T00:00:09.691Z,3.90
2019-01-09T00:01:14.866Z,3.90
2019-01-09T00:02:18.403Z,3.90
2019-01-09T00:03:22.046Z,3.90
2019-01-09T00:04:25.513Z,3.90
2019-01-09T00:05:29.055Z,3.90
2019-01-09T00:06:32.590Z,4.00
2019-01-09T00:07:36.054Z,4.00
2019-01-09T00:08:39.632Z,4.00
2019-01-09T00:09:43.159Z,4.00
2019-01-09T00:10:46.694Z,4.00
2019-01-09T00:11:50.158Z,4.00
2019-01-09T00:12:53.761Z,4.00
2019-01-09T00:13:57.329Z,4.00
2019-01-09T00:15:00.870Z,4.10
2019-01-09T00:16:04.476Z,4.00
2019-01-09T00:17:08.003Z,4.00
2019-01-09T00:18:11.539Z,4.00
2019-01-09T00:19:15.110Z,4.00
2019-01-09T00:20:18.584Z,4.00
2019-01-09T00:21:22.190Z,4.00
2019-01-09T00:22:25.721Z,4.00
2019-01-09T00:23:29.221Z,4.00
2019-01-09T00:24:32.755Z,4.00
2019-01-09T00:25:36.399Z,4.00
2019-01-09T00:26:39.966Z,4.00
2019-01-09T00:27:43.438Z,4.00
2019-01-09T00:28:46.979Z,4.00
2019-01-09T00:29:50.518Z,3.90
2019-01-09T00:30:54.054Z,3.90
2019-01-09T00:31:57.554Z,3.90
2019-01-09T00:33:01.086Z,3.90
2019-01-09T00:34:04.698Z,3.90
2019-01-09T00:35:08.417Z,3.90
2019-01-09T00:36:11.947Z,3.80
2019-01-09T00:37:15.655Z,3.90
2019-01-09T00:38:19.231Z,3.90
2019-01-09T00:39:22.774Z,3.90
2019-01-09T00:40:26.314Z,3.90
2019-01-09T00:41:29.854Z,3.90
2019-01-09T00:42:33.394Z,3.90
2019-01-09T00:43:36.978Z,3.90
2019-01-09T00:44:40.594Z,3.90
2019-01-09T00:45:44.060Z,3.90
2019-01-09T00:46:47.646Z,3.90
2019-01-09T00:47:51.198Z,4.00
2019-01-09T00:48:54.733Z,3.90
2019-01-09T00:49:58.342Z,4.00
2019-01-09T00:51:01.984Z,4.00
2019-01-09T00:52:05.521Z,3.90
2019-01-09T00:53:09.058Z,3.90
2019-01-09T00:54:12.613Z,4.00
2019-01-09T00:55:16.226Z,3.90
2019-01-09T00:56:19.904Z,3.90
2019-01-09T00:57:23.505Z,3.90
2019-01-09T00:58:27.046Z,4.00
2019-01-09T00:59:30.690Z,4.00
2019-01-09T01:00:34.301Z,4.00
2019-01-09T01:01:38.176Z,4.00
2019-01-09T01:02:56.529Z,4.00
2019-01-09T01:04:12.079Z,3.90
2019-01-09T01:05:33.750Z,4.00
2019-01-09T01:06:46.050Z,4.00
2019-01-09T01:07:55.486Z,3.90
2019-01-09T01:09:30.949Z,4.00
2019-01-09T01:10:52.602Z,4.00
2019-01-09T01:12:16.814Z,3.90
2019-01-09T01:13:29.301Z,3.90
2019-01-09T01:15:02.796Z,3.90
2019-01-09T01:16:15.561Z,3.90
2019-01-09T01:17:28.086Z,3.90
2019-01-09T01:18:40.630Z,3.90
2019-01-09T01:19:56.006Z,3.90
2019-01-09T01:21:27.631Z,3.90
2019-01-09T01:22:50.783Z,3.90
2019-01-09T01:24:03.578Z,3.90
2019-01-09T01:25:26.421Z,3.80
2019-01-09T01:26:42.059Z,3.80
2019-01-09T01:28:09.793Z,3.80
2019-01-09T01:29:36.086Z,3.80
2019-01-09T01:31:05.405Z,3.80
2019-01-09T01:32:26.621Z,3.80
2019-01-09T01:33:45.310Z,3.80
2019-01-09T01:35:10.017Z,3.80
2019-01-09T01:36:37.582Z,3.80
2019-01-09T01:37:59.126Z,3.80
2019-01-09T01:39:14.510Z,3.80
2019-01-09T01:40:24.099Z,3.70
2019-01-09T01:41:36.597Z,3.80
2019-01-09T01:42:48.654Z,3.80
2019-01-09T01:43:57.754Z,3.80
2019-01-09T01:45:13.634Z,3.80
2019-01-09T01:46:38.521Z,3.80
2019-01-09T01:48:00.207Z,3.80
2019-01-09T01:49:06.815Z,3.80
2019-01-09T01:50:28.261Z,3.70
2019-01-09T01:51:40.801Z,3.80
2019-01-09T01:52:47.418Z,3.80
2019-01-09T01:53:56.979Z,3.80
2019-01-09T01:55:03.526Z,3.80
2019-01-09T01:56:19.177Z,3.70
2019-01-09T01:57:43.602Z,3.80
2019-01-09T01:59:08.270Z,3.80
2019-01-09T02:00:34.461Z,3.80
2019-01-09T02:02:00.542Z,3.80
2019-01-09T02:03:23.645Z,3.70
2019-01-09T02:04:48.442Z,3.80
2019-01-09T02:06:03.474Z,3.80
2019-01-09T02:07:09.038Z,3.80
2019-01-09T02:08:18.275Z,3.80
2019-01-09T02:09:30.482Z,3.80
2019-01-09T02:11:10.792Z,3.80
2019-01-09T02:12:23.415Z,3.80
2019-01-09T02:13:36.233Z,3.80
2019-01-09T02:15:00.835Z,3.80
2019-01-09T02:16:33.287Z,3.80
2019-01-09T02:17:42.987Z,3.80
2019-01-09T02:18:52.245Z,3.80
2019-01-09T02:20:07.942Z,3.70
2019-01-09T02:21:41.498Z,3.80
2019-01-09T02:23:12.130Z,3.70
2019-01-09T02:24:47.374Z,3.80
2019-01-09T02:26:06.077Z,3.80
2019-01-09T02:27:12.734Z,3.80
2019-01-09T02:28:31.440Z,3.80
2019-01-09T02:29:38.046Z,3.80
2019-01-09T02:30:56.603Z,3.80
2019-01-09T02:32:18.170Z,3.80
2019-01-09T02:33:21.717Z,3.80
2019-01-09T02:34:25.279Z,3.80
2019-01-09T02:35:28.805Z,3.80
2019-01-09T02:36:32.343Z,3.80
2019-01-09T02:37:35.902Z,3.80
2019-01-09T02:38:39.370Z,3.80
2019-01-09T02:39:42.902Z,3.80
2019-01-09T02:40:46.439Z,3.80
2019-01-09T02:41:49.975Z,3.80
2019-01-09T02:42:53.550Z,3.80
2019-01-09T02:43:57.086Z,3.80
2019-01-09T02:45:00.552Z,3.80
2019-01-09T02:46:04.093Z,3.80
2019-01-09T02:47:07.677Z,3.80
2019-01-09T02:48:11.249Z,3.80
2019-01-09T02:49:14.748Z,3.80
2019-01-09T02:50:18.366Z,3.80
2019-01-09T02:51:21.831Z,3.80
2019-01-09T02:52:25.404Z,3.80
2019-01-09T02:53:28.935Z,3.80
2019-01-09T02:54:32.505Z,3.80
2019-01-09T02:55:35.970Z,3.80
2019-01-09T02:56:39.550Z,3.80
2019-01-09T02:57:43.098Z,3.90
2019-01-09T02:58:46.638Z,3.80
2019-01-09T02:59:50.178Z,3.80
2019-01-09T03:00:53.724Z,3.80
2019-01-09T03:01:57.308Z,3.80
2019-01-09T03:03:00.842Z,3.80
2019-01-09T03:04:04.301Z,3.80
2019-01-09T03:05:07.771Z,3.80
2019-01-09T03:06:11.328Z,3.80
2019-01-09T03:07:14.898Z,3.80
2019-01-09T03:08:18.444Z,3.80
2019-01-09T03:09:21.976Z,3.80
2019-01-09T03:10:25.507Z,3.80
2019-01-09T03:11:28.975Z,3.80
2019-01-09T03:12:32.546Z,3.80
2019-01-09T03:13:36.005Z,3.80
2019-01-09T03:14:39.528Z,3.70
2019-01-09T03:15:43.062Z,3.80
2019-01-09T03:16:46.533Z,3.80
2019-01-09T03:17:50.107Z,3.70
2019-01-09T03:18:53.646Z,3.70
2019-01-09T03:19:57.218Z,3.70
2019-01-09T03:21:00.757Z,3.70
2019-01-09T03:22:04.256Z,3.60
2019-01-09T03:23:07.798Z,3.70
2019-01-09T03:24:11.348Z,3.60
2019-01-09T03:25:14.927Z,3.60
2019-01-09T03:26:18.394Z,3.60
2019-01-09T03:27:21.937Z,3.70
2019-01-09T03:28:25.532Z,3.60
2019-01-09T03:29:29.067Z,3.60
2019-01-09T03:30:32.611Z,3.60
2019-01-09T03:31:36.149Z,3.60
2019-01-09T03:32:39.703Z,3.60
2019-01-09T03:33:43.274Z,3.60
2019-01-09T03:34:46.815Z,3.60
2019-01-09T03:35:50.398Z,3.60
2019-01-09T03:36:53.934Z,3.60
2019-01-09T03:37:57.474Z,3.60
2019-01-09T03:39:01.017Z,3.60
2019-01-09T03:40:06.598Z,3.60
2019-01-09T03:41:10.174Z,3.60
2019-01-09T03:42:13.713Z,3.50
2019-01-09T03:43:17.261Z,3.50
2019-01-09T03:44:20.802Z,3.60
2019-01-09T03:45:24.333Z,3.50
2019-01-09T03:46:27.851Z,3.50
2019-01-09T03:47:31.397Z,3.50
2019-01-09T03:48:34.933Z,3.60
2019-01-09T03:49:38.403Z,3.50
2019-01-09T03:50:41.950Z,3.50
2019-01-09T03:51:45.513Z,3.50
2019-01-09T03:52:49.056Z,3.50
2019-01-09T03:53:52.604Z,3.50
2019-01-09T03:54:56.142Z,3.50
2019-01-09T03:55:59.742Z,3.50
2019-01-09T03:57:03.267Z,3.50
2019-01-09T03:58:06.802Z,3.50
2019-01-09T03:59:10.339Z,3.40
2019-01-09T04:00:13.873Z,3.40
2019-01-09T04:01:17.517Z,3.40
2019-01-09T04:02:21.046Z,3.40
2019-01-09T04:03:24.586Z,3.40
2019-01-09T04:04:28.127Z,3.40
2019-01-09T04:05:31.678Z,3.30
2019-01-09T04:06:41.786Z,3.30
2019-01-09T04:07:40.454Z,3.30
2019-01-09T04:08:43.990Z,3.20
2019-01-09T04:09:47.450Z,3.20
2019-01-09T04:10:50.919Z,3.20
2019-01-09T04:11:54.450Z,3.20
2019-01-09T04:12:57.963Z,3.20
2019-01-09T04:14:01.503Z,3.10
2019-01-09T04:15:06.486Z,3.20
2019-01-09T04:16:10.025Z,3.20
2019-01-09T04:17:13.491Z,3.20
2019-01-09T04:18:17.164Z,3.20
2019-01-09T04:19:20.734Z,3.10
2019-01-09T04:20:24.278Z,3.10
2019-01-09T04:21:27.819Z,3.10
2019-01-09T04:22:31.361Z,3.10
2019-01-09T04:23:34.953Z,3.10
2019-01-09T04:24:38.419Z,3.00
2019-01-09T04:25:41.950Z,3.00
2019-01-09T04:26:45.541Z,3.00
2019-01-09T04:27:49.062Z,3.00
2019-01-09T04:28:52.641Z,3.00
2019-01-09T04:29:56.320Z,3.00
2019-01-09T04:30:59.962Z,2.90
2019-01-09T04:32:03.490Z,2.90
2019-01-09T04:33:07.034Z,2.90
2019-01-09T04:34:10.570Z,2.90
2019-01-09T04:35:14.143Z,2.90
2019-01-09T04:36:17.681Z,2.90
2019-01-09T04:37:21.140Z,3.00
2019-01-09T04:38:24.721Z,2.90
2019-01-09T04:39:28.272Z,2.90
2019-01-09T04:40:31.820Z,3.00
2019-01-09T04:41:35.358Z,3.00
2019-01-09T04:42:38.887Z,3.00
2019-01-09T04:43:42.454Z,3.00
2019-01-09T04:44:46.089Z,2.90
2019-01-09T04:45:49.549Z,2.90
2019-01-09T04:46:53.046Z,3.00
2019-01-09T04:47:56.587Z,3.00
2019-01-09T04:49:00.125Z,3.00
2019-01-09T04:50:04.331Z,3.00
2019-01-09T04:51:07.902Z,3.00
2019-01-09T04:52:11.442Z,3.00
2019-01-09T04:53:15.088Z,3.10
2019-01-09T04:54:18.545Z,3.00
2019-01-09T04:55:22.082Z,3.00
2019-01-09T04:56:25.541Z,3.00
2019-01-09T04:57:29.006Z,2.90
2019-01-09T04:58:32.574Z,2.90
2019-01-09T04:59:36.042Z,2.90
2019-01-09T05:00:39.614Z,2.90
2019-01-09T05:01:43.099Z,2.90
2019-01-09T05:02:46.706Z,2.90
2019-01-09T05:03:50.278Z,2.90
2019-01-09T05:04:53.849Z,2.90
2019-01-09T05:05:57.419Z,2.90
2019-01-09T05:07:01.042Z,2.90
2019-01-09T05:08:04.501Z,2.80
2019-01-09T05:09:08.073Z,2.90
2019-01-09T05:10:11.606Z,2.80
2019-01-09T05:11:15.109Z,2.70
2019-01-09T05:12:18.574Z,2.70
2019-01-09T05:13:22.114Z,2.70
2019-01-09T05:14:25.691Z,2.70
2019-01-09T05:15:29.231Z,2.60
2019-01-09T05:16:32.766Z,2.60
2019-01-09T05:17:36.353Z,2.60
2019-01-09T05:18:39.904Z,2.60
2019-01-09T05:19:43.438Z,2.60
2019-01-09T05:20:46.974Z,2.60
2019-01-09T05:21:50.433Z,2.60
2019-01-09T05:22:53.930Z,2.60
2019-01-09T05:23:57.562Z,2.70
2019-01-09T05:25:01.026Z,2.70
2019-01-09T05:26:04.493Z,2.70
2019-01-09T05:27:08.070Z,2.70
2019-01-09T05:28:11.642Z,2.70
2019-01-09T05:29:15.185Z,2.80
2019-01-09T05:30:18.721Z,2.70
2019-01-09T05:31:22.190Z,2.70
2019-01-09T05:32:25.734Z,2.70
2019-01-09T05:33:29.226Z,2.60
2019-01-09T05:34:32.734Z,2.70
2019-01-09T05:35:36.274Z,2.70
2019-01-09T05:36:39.812Z,2.70
2019-01-09T05:37:43.350Z,2.70
2019-01-09T05:38:46.898Z,2.60
2019-01-09T05:39:50.473Z,2.70
2019-01-09T05:40:54.006Z,2.70
2019-01-09T05:41:57.551Z,2.70
2019-01-09T05:43:01.095Z,2.70
2019-01-09T05:44:04.702Z,2.70
2019-01-09T05:45:08.210Z,2.80
2019-01-09T05:46:11.755Z,2.70
2019-01-09T05:47:15.335Z,2.80
2019-01-09T05:48:18.875Z,2.70
2019-01-09T05:49:22.419Z,2.70
2019-01-09T05:50:25.958Z,2.80
2019-01-09T05:51:29.529Z,2.70
2019-01-09T05:52:33.061Z,2.70
2019-01-09T05:53:36.562Z,2.80
2019-01-09T05:54:41.569Z,2.80
2019-01-09T05:55:45.245Z,2.80
2019-01-09T05:56:48.786Z,2.70
2019-01-09T05:57:52.249Z,2.70
2019-01-09T05:58:55.819Z,2.80
2019-01-09T05:59:59.358Z,2.70
2019-01-09T06:01:02.853Z,2.70
2019-01-09T06:02:06.394Z,2.70
2019-01-09T06:03:09.858Z,2.60
2019-01-09T06:04:13.396Z,2.60
2019-01-09T06:05:16.935Z,2.60
2019-01-09T06:06:20.509Z,2.70
2019-01-09T06:07:23.970Z,2.70
2019-01-09T06:08:27.438Z,2.70
2019-01-09T06:09:30.916Z,2.70
2019-01-09T06:10:34.448Z,2.70
2019-01-09T06:11:38.018Z,2.70
2019-01-09T06:12:41.595Z,2.80
2019-01-09T06:13:45.243Z,2.80
2019-01-09T06:14:48.778Z,2.80
2019-01-09T06:15:52.239Z,2.80
2019-01-09T06:16:55.790Z,2.80
2019-01-09T06:17:59.377Z,2.80
2019-01-09T06:19:02.907Z,2.80
2019-01-09T06:20:07.620Z,2.80
2019-01-09T06:21:11.158Z,2.80
2019-01-09T06:22:14.700Z,2.80
2019-01-09T06:23:18.238Z,2.70
2019-01-09T06:24:21.782Z,2.80
2019-01-09T06:25:25.359Z,2.80
2019-01-09T06:26:28.895Z,2.80
2019-01-09T06:27:32.434Z,2.80
2019-01-09T06:28:35.974Z,2.80
2019-01-09T06:29:39.565Z,2.80
2019-01-09T06:30:43.098Z,2.90
2019-01-09T06:31:46.558Z,2.80
2019-01-09T06:32:50.026Z,2.90
2019-01-09T06:33:53.753Z,2.90
2019-01-09T06:34:57.318Z,2.90
2019-01-09T06:36:00.857Z,2.90
2019-01-09T06:37:04.403Z,2.80
2019-01-09T06:38:07.946Z,2.90
2019-01-09T06:39:11.491Z,2.90
2019-01-09T06:40:15.079Z,2.90
2019-01-09T06:41:18.614Z,2.80
2019-01-09T06:42:22.154Z,2.80
2019-01-09T06:43:25.689Z,2.90
2019-01-09T06:44:29.150Z,2.90
2019-01-09T06:45:32.645Z,3.00
2019-01-09T06:46:36.154Z,3.00
2019-01-09T06:47:39.613Z,3.00
2019-01-09T06:48:43.082Z,3.00
2019-01-09T06:49:46.617Z,3.00
2019-01-09T06:50:50.091Z,3.00
2019-01-09T06:51:53.670Z,3.00
2019-01-09T06:52:57.206Z,3.00
2019-01-09T06:54:00.694Z,3.00
2019-01-09T06:55:04.281Z,3.00
2019-01-09T06:56:07.813Z,3.00
2019-01-09T06:57:11.401Z,3.10
2019-01-09T06:58:14.934Z,3.00
2019-01-09T06:59:18.469Z,3.00
2019-01-09T07:00:21.934Z,3.00
2019-01-09T07:01:25.474Z,3.00
2019-01-09T07:02:29.126Z,3.00
2019-01-09T07:03:32.589Z,3.00
2019-01-09T07:04:36.054Z,3.00
2019-01-09T07:05:39.590Z,3.00
2019-01-09T07:06:43.130Z,3.00
2019-01-09T07:07:46.791Z,2.90
2019-01-09T07:08:50.390Z,2.90
2019-01-09T07:09:53.870Z,3.00
2019-01-09T07:10:57.410Z,3.00
2019-01-09T07:12:00.950Z,3.00
2019-01-09T07:13:04.538Z,3.00
2019-01-09T07:14:08.151Z,3.00
2019-01-09T07:15:13.781Z,3.00
2019-01-09T07:16:16.884Z,3.00
2019-01-09T07:17:20.417Z,3.00
2019-01-09T07:18:23.926Z,3.00
2019-01-09T07:19:27.467Z,3.00
2019-01-09T07:20:31.008Z,3.00
2019-01-09T07:21:34.537Z,3.00
2019-01-09T07:22:38.038Z,3.00
2019-01-09T07:23:41.577Z,3.00
2019-01-09T07:24:45.158Z,3.00
2019-01-09T07:25:48.694Z,3.00
2019-01-09T07:26:52.162Z,3.00
2019-01-09T07:27:55.814Z,3.00
2019-01-09T07:28:59.349Z,3.00
2019-01-09T07:30:02.956Z,3.00
2019-01-09T07:31:06.490Z,3.00
2019-01-09T07:32:10.026Z,3.00
2019-01-09T07:33:13.534Z,3.00
2019-01-09T07:34:17.078Z,3.00
2019-01-09T07:35:20.623Z,3.00
2019-01-09T07:36:24.161Z,3.00
2019-01-09T07:37:27.708Z,3.00
2019-01-09T07:38:31.277Z,3.00
2019-01-09T07:39:34.745Z,3.00
2019-01-09T07:40:38.279Z,3.00
2019-01-09T07:41:41.930Z,3.00
2019-01-09T07:42:45.474Z,3.00
2019-01-09T07:43:49.014Z,3.00
2019-01-09T07:44:52.541Z,3.00
2019-01-09T07:45:56.010Z,3.00
2019-01-09T07:46:59.582Z,3.00
2019-01-09T07:48:03.123Z,3.00
2019-01-09T07:49:06.662Z,3.00
2019-01-09T07:50:10.194Z,3.00
2019-01-09T07:51:13.658Z,3.00
2019-01-09T07:52:17.170Z,3.00
2019-01-09T07:53:20.705Z,3.00
2019-01-09T07:54:24.246Z,3.00
2019-01-09T07:55:27.785Z,3.00
2019-01-09T07:56:31.327Z,3.00
2019-01-09T07:57:34.974Z,3.00
2019-01-09T07:58:38.509Z,2.90
2019-01-09T07:59:41.969Z,3.00
2019-01-09T08:00:45.437Z,3.00
2019-01-09T08:01:48.978Z,2.90
2019-01-09T08:02:52.638Z,3.00
2019-01-09T08:03:56.174Z,3.00
2019-01-09T08:04:59.638Z,2.90
2019-01-09T08:06:03.112Z,2.90
2019-01-09T08:07:06.651Z,2.90
2019-01-09T08:08:10.231Z,2.90
2019-01-09T08:09:13.762Z,2.90
2019-01-09T08:10:17.406Z,2.90
2019-01-09T08:11:20.937Z,2.90
2019-01-09T08:12:24.479Z,3.00
2019-01-09T08:13:28.070Z,2.90
2019-01-09T08:14:31.610Z,2.90
2019-01-09T08:15:35.147Z,2.90
2019-01-09T08:16:38.610Z,3.00
2019-01-09T08:17:42.161Z,3.00
2019-01-09T08:18:45.741Z,3.00
2019-01-09T08:19:49.287Z,3.00
2019-01-09T08:20:52.826Z,2.90
2019-01-09T08:21:56.292Z,3.00
2019-01-09T08:22:59.825Z,3.00
2019-01-09T08:24:03.321Z,3.00
2019-01-09T08:25:06.861Z,3.00
2019-01-09T08:26:10.389Z,3.00
2019-01-09T08:27:13.929Z,2.90
2019-01-09T08:28:17.436Z,2.90
2019-01-09T08:29:21.041Z,2.90
2019-01-09T08:30:24.585Z,2.90
2019-01-09T08:31:28.158Z,2.90
2019-01-09T08:32:31.697Z,2.90
2019-01-09T08:33:35.271Z,2.80
2019-01-09T08:34:38.818Z,2.80
2019-01-09T08:35:42.365Z,2.80
2019-01-09T08:36:45.906Z,2.80
2019-01-09T08:37:49.529Z,2.80
2019-01-09T08:38:53.020Z,2.80
2019-01-09T08:39:56.594Z,2.80
2019-01-09T08:41:00.447Z,2.80
2019-01-09T08:42:03.990Z,2.80
2019-01-09T08:43:07.530Z,2.80
2019-01-09T08:44:11.069Z,2.80
2019-01-09T08:45:14.601Z,2.80
2019-01-09T08:46:18.111Z,2.90
2019-01-09T08:47:21.650Z,2.90
2019-01-09T08:48:25.190Z,2.90
2019-01-09T08:49:28.726Z,2.90
2019-01-09T08:50:32.265Z,2.90
2019-01-09T08:51:35.841Z,2.80
2019-01-09T08:52:39.373Z,2.90
2019-01-09T08:53:42.843Z,2.90
2019-01-09T08:54:46.373Z,2.90
2019-01-09T08:55:49.839Z,2.90
2019-01-09T08:56:53.422Z,2.90
2019-01-09T08:57:56.965Z,2.90
2019-01-09T08:59:00.506Z,2.90
2019-01-09T09:00:05.839Z,2.90
2019-01-09T09:01:09.439Z,2.90
2019-01-09T09:02:13.022Z,2.90
2019-01-09T09:03:16.558Z,2.90
2019-01-09T09:04:20.030Z,2.90
2019-01-09T09:05:23.567Z,3.00
2019-01-09T09:06:27.098Z,3.00
2019-01-09T09:07:31.222Z,3.00
2019-01-09T09:08:35.025Z,3.00
2019-01-09T09:09:38.558Z,3.00
2019-01-09T09:10:42.103Z,2.90
2019-01-09T09:11:45.710Z,2.90
2019-01-09T09:12:49.299Z,3.00
2019-01-09T09:13:52.842Z,3.00
2019-01-09T09:14:56.386Z,3.00
2019-01-09T09:15:59.926Z,3.00
2019-01-09T09:17:03.467Z,3.00
2019-01-09T09:18:07.048Z,2.90
2019-01-09T09:19:10.622Z,2.90
2019-01-09T09:20:14.332Z,2.90
2019-01-09T09:21:17.866Z,2.90
2019-01-09T09:22:21.475Z,2.90
2019-01-09T09:23:25.046Z,2.90
2019-01-09T09:24:28.514Z,2.90
2019-01-09T09:25:32.057Z,2.90
2019-01-09T09:26:35.518Z,3.00
2019-01-09T09:27:39.018Z,3.00
2019-01-09T09:28:42.486Z,3.00
2019-01-09T09:29:46.023Z,2.90
2019-01-09T09:30:49.585Z,2.90
2019-01-09T09:31:53.102Z,2.90
2019-01-09T09:32:56.686Z,2.90
2019-01-09T09:34:00.154Z,2.90
2019-01-09T09:35:03.690Z,2.90
2019-01-09T09:36:07.230Z,2.90
2019-01-09T09:37:10.770Z,2.90
2019-01-09T09:38:20.500Z,2.90
2019-01-09T09:39:19.531Z,2.90
2019-01-09T09:40:23.202Z,2.80
2019-01-09T09:41:26.746Z,2.80
2019-01-09T09:42:30.327Z,2.80
2019-01-09T09:43:33.866Z,2.80
2019-01-09T09:44:37.401Z,2.80
2019-01-09T09:45:40.881Z,2.80
2019-01-09T09:46:44.411Z,2.80
2019-01-09T09:47:47.979Z,2.80
2019-01-09T09:48:51.561Z,2.80
2019-01-09T09:49:55.106Z,2.80
2019-01-09T09:50:58.646Z,2.80
2019-01-09T09:52:02.186Z,2.90
2019-01-09T09:53:05.729Z,2.80
2019-01-09T09:54:09.310Z,2.80
2019-01-09T09:55:13.299Z,2.80
2019-01-09T09:56:16.863Z,2.90
2019-01-09T09:57:20.327Z,2.90
2019-01-09T09:58:23.871Z,2.90
2019-01-09T09:59:27.451Z,2.80
2019-01-09T10:00:30.914Z,2.80
2019-01-09T10:01:34.447Z,2.90
2019-01-09T10:02:37.990Z,2.90
2019-01-09T10:03:41.525Z,2.90
2019-01-09T10:04:45.030Z,2.90
2019-01-09T10:05:48.570Z,2.90
2019-01-09T10:06:52.172Z,2.90
2019-01-09T10:07:55.710Z,2.90
2019-01-09T10:08:59.246Z,2.90
2019-01-09T10:10:02.858Z,2.90
2019-01-09T10:11:06.663Z,2.90
2019-01-09T10:12:10.246Z,2.90
2019-01-09T10:13:13.786Z,2.90
2019-01-09T10:14:17.323Z,2.90
2019-01-09T10:15:20.858Z,2.90
2019-01-09T10:16:24.328Z,2.90
2019-01-09T10:17:27.910Z,2.90
2019-01-09T10:18:31.446Z,2.80
2019-01-09T10:19:34.921Z,2.90
2019-01-09T10:20:38.449Z,2.90
2019-01-09T10:21:41.918Z,2.90
2019-01-09T10:22:46.557Z,2.80
2019-01-09T10:23:50.102Z,2.80
2019-01-09T10:24:53.640Z,2.70
2019-01-09T10:25:57.189Z,2.70
2019-01-09T10:27:00.738Z,2.70
2019-01-09T10:28:04.309Z,2.60
2019-01-09T10:29:07.922Z,2.60
2019-01-09T10:30:14.530Z,2.60
2019-01-09T10:31:18.066Z,2.60
2019-01-09T10:32:21.607Z,2.60
2019-01-09T10:33:25.194Z,2.70
2019-01-09T10:34:28.735Z,2.70
2019-01-09T10:35:32.277Z,2.70
2019-01-09T10:36:35.746Z,2.70
2019-01-09T10:37:39.291Z,2.70
2019-01-09T10:38:44.527Z,2.70
2019-01-09T10:39:48.213Z,2.70
2019-01-09T10:40:51.758Z,2.60
2019-01-09T10:41:55.231Z,2.60
2019-01-09T10:42:58.787Z,2.60
2019-01-09T10:44:02.376Z,2.70
2019-01-09T10:45:08.754Z,2.70
2019-01-09T10:46:12.220Z,2.70
2019-01-09T10:47:15.758Z,2.70
2019-01-09T10:48:19.307Z,2.70
2019-01-09T10:49:22.894Z,2.70
2019-01-09T10:50:26.453Z,2.70
2019-01-09T10:51:29.982Z,2.70
2019-01-09T10:52:33.529Z,2.80
2019-01-09T10:53:37.070Z,2.80
2019-01-09T10:54:40.650Z,2.80
2019-01-09T10:55:44.198Z,2.70
2019-01-09T10:56:47.822Z,2.70
2019-01-09T10:57:51.286Z,2.70
2019-01-09T10:58:54.827Z,2.80
2019-01-09T10:59:58.404Z,2.80
2019-01-09T11:01:02.030Z,2.80
2019-01-09T11:02:05.613Z,2.80
2019-01-09T11:03:09.202Z,2.70
2019-01-09T11:04:12.737Z,2.70
2019-01-09T11:05:16.739Z,2.60
2019-01-09T11:06:20.287Z,2.60
2019-01-09T11:07:23.882Z,2.60
2019-01-09T11:08:27.352Z,2.60
2019-01-09T11:09:30.887Z,2.60
2019-01-09T11:10:34.372Z,2.60
2019-01-09T11:11:38.020Z,2.60
2019-01-09T11:12:41.593Z,2.60
2019-01-09T11:13:45.143Z,2.60
2019-01-09T11:14:48.685Z,2.60
2019-01-09T11:15:52.254Z,2.50
2019-01-09T11:16:56.672Z,2.50
2019-01-09T11:18:00.222Z,2.50
2019-01-09T11:19:03.948Z,2.50
2019-01-09T11:20:10.618Z,2.50
2019-01-09T11:21:14.169Z,2.50
2019-01-09T11:22:17.717Z,2.50
2019-01-09T11:23:21.251Z,2.60
2019-01-09T11:24:24.790Z,2.60
2019-01-09T11:25:28.375Z,2.50
2019-01-09T11:26:31.918Z,2.60
2019-01-09T11:27:35.471Z,2.60
2019-01-09T11:28:39.002Z,2.60
2019-01-09T11:29:42.544Z,2.60
2019-01-09T11:30:46.117Z,2.60
2019-01-09T11:31:49.670Z,2.60
2019-01-09T11:32:53.217Z,2.60
2019-01-09T11:33:56.758Z,2.60
2019-01-09T11:35:00.302Z,2.60
2019-01-09T11:36:04.452Z,2.60
2019-01-09T11:37:07.999Z,2.60
2019-01-09T11:38:11.538Z,2.60
2019-01-09T11:39:15.010Z,2.60
2019-01-09T11:40:19.698Z,2.60
2019-01-09T11:41:23.289Z,2.60
2019-01-09T11:42:26.835Z,2.60
2019-01-09T11:43:30.699Z,2.70
2019-01-09T11:44:34.252Z,2.70
2019-01-09T11:45:37.886Z,2.70
2019-01-09T11:46:41.402Z,2.70
2019-01-09T11:47:44.915Z,2.70
2019-01-09T11:48:48.451Z,2.60
2019-01-09T11:49:51.990Z,2.60
2019-01-09T11:50:55.566Z,2.60
2019-01-09T11:51:59.106Z,2.60
2019-01-09T11:53:02.654Z,2.60
2019-01-09T11:54:06.369Z,2.70
2019-01-09T11:55:11.707Z,2.60
2019-01-09T11:56:15.251Z,2.60
2019-01-09T11:57:18.791Z,2.60
2019-01-09T11:58:22.350Z,2.60
2019-01-09T11:59:25.878Z,2.70
2019-01-09T12:00:29.534Z,2.60
2019-01-09T12:01:33.083Z,2.60
2019-01-09T12:02:36.627Z,2.50
2019-01-09T12:03:40.165Z,2.60
2019-01-09T12:04:43.645Z,2.60
2019-01-09T12:05:47.214Z,2.50
2019-01-09T12:06:50.762Z,2.50
2019-01-09T12:07:54.295Z,2.40
2019-01-09T12:09:04.504Z,2.50
2019-01-09T12:10:03.069Z,2.40
2019-01-09T12:11:06.661Z,2.40
2019-01-09T12:12:10.278Z,2.40
2019-01-09T12:13:13.824Z,2.50
2019-01-09T12:14:17.371Z,2.50
2019-01-09T12:15:21.284Z,2.40
2019-01-09T12:16:24.866Z,2.40
2019-01-09T12:17:28.418Z,2.40
2019-01-09T12:18:31.962Z,2.40
2019-01-09T12:19:35.498Z,2.40
2019-01-09T12:20:39.042Z,2.40
2019-01-09T12:21:42.638Z,2.40
2019-01-09T12:22:46.818Z,2.40
2019-01-09T12:23:50.354Z,2.50
2019-01-09T12:24:53.907Z,2.50
2019-01-09T12:25:57.446Z,2.40
2019-01-09T12:27:01.021Z,2.40
2019-01-09T12:28:04.627Z,2.40
2019-01-09T12:29:08.230Z,2.50
2019-01-09T12:30:25.662Z,2.50
2019-01-09T12:31:29.202Z,2.50
2019-01-09T12:32:32.782Z,2.50
2019-01-09T12:33:36.380Z,2.40
2019-01-09T12:34:39.911Z,2.40
2019-01-09T12:35:43.450Z,2.40
2019-01-09T12:36:46.989Z,2.40
2019-01-09T12:37:50.790Z,2.40
2019-01-09T12:38:54.374Z,2.40
2019-01-09T12:39:57.919Z,2.50
2019-01-09T12:41:01.462Z,2.50
2019-01-09T12:42:05.009Z,2.60
2019-01-09T12:43:08.546Z,2.60
2019-01-09T12:44:12.134Z,2.50
2019-01-09T12:45:17.006Z,2.50
2019-01-09T12:46:20.551Z,2.60
2019-01-09T12:47:24.134Z,2.60
2019-01-09T12:48:27.683Z,2.60
2019-01-09T12:49:31.230Z,2.60
2019-01-09T12:50:34.789Z,2.50
2019-01-09T12:51:38.330Z,2.50
2019-01-09T12:52:41.926Z,2.50
2019-01-09T12:53:45.476Z,2.50
2019-01-09T12:54:49.018Z,2.50
2019-01-09T12:55:52.562Z,2.50
2019-01-09T12:56:56.097Z,2.60
2019-01-09T12:57:59.678Z,2.60
2019-01-09T12:59:03.290Z,2.60
2019-01-09T13:00:12.322Z,2.60
2019-01-09T13:01:15.888Z,2.60
2019-01-09T13:02:19.421Z,2.60
2019-01-09T13:03:23.002Z,2.60
2019-01-09T13:04:26.547Z,2.60
2019-01-09T13:05:30.227Z,2.60
2019-01-09T13:06:33.767Z,2.60
2019-01-09T13:07:37.308Z,2.60
2019-01-09T13:08:40.895Z,2.60
2019-01-09T13:09:44.434Z,2.60
2019-01-09T13:10:47.974Z,2.60
2019-01-09T13:11:51.440Z,2.60
2019-01-09T13:12:54.992Z,2.60
2019-01-09T13:13:58.558Z,2.60
2019-01-09T13:15:02.023Z,2.60
2019-01-09T13:16:05.563Z,2.60
2019-01-09T13:17:12.018Z,2.60
2019-01-09T13:18:14.339Z,2.60
2019-01-09T13:19:17.889Z,2.60
2019-01-09T13:20:21.422Z,2.60
2019-01-09T13:21:24.975Z,2.60
2019-01-09T13:22:28.554Z,2.60
2019-01-09T13:23:32.353Z,2.60
2019-01-09T13:24:35.906Z,2.60
2019-01-09T13:25:39.371Z,2.60
2019-01-09T13:26:42.910Z,2.60
2019-01-09T13:27:46.499Z,2.60
2019-01-09T13:28:50.038Z,2.60
2019-01-09T13:29:53.573Z,2.60
2019-01-09T13:30:57.039Z,2.60
2019-01-09T13:32:00.586Z,2.60
2019-01-09T13:33:04.242Z,2.60
2019-01-09T13:34:07.779Z,2.60
2019-01-09T13:35:11.461Z,2.60
2019-01-09T13:36:14.998Z,2.70
2019-01-09T13:37:18.546Z,2.70
2019-01-09T13:38:22.130Z,2.60
2019-01-09T13:39:30.656Z,2.60
2019-01-09T13:40:30.780Z,2.70
2019-01-09T13:41:34.254Z,2.60
2019-01-09T13:42:37.794Z,2.70
2019-01-09T13:43:41.382Z,2.70
2019-01-09T13:44:44.853Z,2.70
2019-01-09T13:45:48.318Z,2.70
2019-01-09T13:46:51.860Z,2.70
2019-01-09T13:47:55.469Z,2.70
2019-01-09T13:48:59.012Z,2.70
2019-01-09T13:50:02.726Z,2.80
2019-01-09T13:51:06.267Z,2.80
2019-01-09T13:52:09.819Z,2.80
2019-01-09T13:53:13.362Z,2.70
2019-01-09T13:54:17.015Z,2.70
2019-01-09T13:55:20.546Z,2.70
2019-01-09T13:56:24.081Z,2.70
2019-01-09T13:57:27.587Z,2.70
2019-01-09T13:58:31.135Z,2.70
2019-01-09T13:59:34.679Z,2.70
2019-01-09T14:00:38.226Z,2.70
2019-01-09T14:01:41.823Z,2.70
2019-01-09T14:02:45.507Z,2.70
2019-01-09T14:03:49.045Z,2.70
2019-01-09T14:04:52.594Z,2.70
2019-01-09T14:05:56.143Z,2.70
2019-01-09T14:06:59.731Z,2.70
2019-01-09T14:08:03.273Z,2.80
2019-01-09T14:09:07.654Z,2.70
2019-01-09T14:10:16.722Z,2.70
2019-01-09T14:11:20.274Z,2.70
2019-01-09T14:12:23.862Z,2.70
2019-01-09T14:13:27.402Z,2.80
2019-01-09T14:14:30.946Z,2.70
2019-01-09T14:15:34.490Z,2.70
2019-01-09T14:16:38.029Z,2.70
2019-01-09T14:17:41.741Z,2.70
2019-01-09T14:18:45.289Z,2.60
2019-01-09T14:19:48.902Z,2.60
2019-01-09T14:20:52.419Z,2.60
2019-01-09T14:21:55.963Z,2.60
2019-01-09T14:22:59.554Z,2.70
2019-01-09T14:24:03.113Z,2.70